Time;durP1;ratioP1;P1;durP2;ratioP2;P2;SDS_P1;SDS_P2;PMS_P1;PMS_P2;Temp;Humidity;BMP_temperature;BMP_pressure;BME280_temperature;BME280_humidity;BME280_pressure;Samples;Min_cycle;Max_cycle;Signal;HPM_P1;HPM_P2
2021/11/28 00:00:31;;;;;;;2.50;2.38;;;;;;;;;;5034557;28;20045;-83
2021/11/28 00:02:57;;;;;;;2.83;2.33;;;;;;;;;;5034237;28;20037;-83
2021/11/28 00:05:25;;;;;;;3.85;3.65;;;;;;;;;;5032635;28;20408;-83
2021/11/28 00:13:12;;;;;;;2.72;2.53;;;;;;;;;;5034495;28;20034;-83
2021/11/28 00:15:38;;;;;;;2.80;2.60;;;;;;;;;;5033749;28;20091;-82
2021/11/28 00:18:05;;;;;;;2.67;2.50;;;;;;;;;;5033827;28;20415;-84
2021/11/28 00:20:31;;;;;;;2.97;2.78;;;;;;;;;;5033925;28;20120;-83
2021/11/28 00:22:56;;;;;;;3.78;2.55;;;;;;;;;;5034091;28;20120;-82
2021/11/28 00:25:22;;;;;;;2.30;2.20;;;;;;;;;;5032515;28;20570;-82
2021/11/28 00:27:50;;;;;;;2.30;2.10;;;;;;;;;;5033838;28;20033;-82
2021/11/28 00:30:22;;;;;;;3.50;2.97;;;;;;;;;;5032599;28;20158;-83
2021/11/28 00:32:47;;;;;;;2.58;2.38;;;;;;;;;;5032577;28;20068;-83
2021/11/28 00:35:13;;;;;;;2.47;2.28;;;;;;;;;;5033334;28;20069;-83
2021/11/28 00:37:39;;;;;;;2.53;2.42;;;;;;;;;;5031975;28;20038;-82
2021/11/28 00:40:05;;;;;;;2.58;2.38;;;;;;;;;;5033762;28;20045;-83
2021/11/28 00:42:31;;;;;;;2.92;2.70;;;;;;;;;;5033417;28;20026;-83
2021/11/28 00:44:57;;;;;;;2.30;2.17;;;;;;;;;;5033282;28;20036;-83
2021/11/28 00:47:22;;;;;;;3.33;3.13;;;;;;;;;;5033474;28;20449;-83
2021/11/28 00:52:29;;;;;;;2.47;2.28;;;;;;;;;;5033224;28;20503;-82
2021/11/28 00:54:55;;;;;;;2.88;2.67;;;;;;;;;;5032885;28;20116;-81
2021/11/28 00:57:23;;;;;;;3.83;3.63;;;;;;;;;;5033362;28;20472;-82
2021/11/28 00:59:49;;;;;;;2.63;2.42;;;;;;;;;;5033412;28;20114;-83
2021/11/28 01:02:16;;;;;;;2.30;2.20;;;;;;;;;;5033025;28;20048;-83
2021/11/28 01:04:42;;;;;;;2.08;1.98;;;;;;;;;;5031610;28;20171;-83
2021/11/28 01:07:08;;;;;;;2.70;2.50;;;;;;;;;;5033215;28;20645;-85
2021/11/28 01:09:34;;;;;;;2.53;2.40;;;;;;;;;;5032074;28;20033;-84
2021/11/28 01:12:00;;;;;;;2.92;2.72;;;;;;;;;;5032081;28;20044;-85
2021/11/28 01:14:25;;;;;;;2.22;2.03;;;;;;;;;;5031927;28;20029;-85
2021/11/28 01:16:51;;;;;;;2.70;2.50;;;;;;;;;;5032047;28;20408;-84
2021/11/28 01:19:16;;;;;;;2.47;1.80;;;;;;;;;;5031803;28;20125;-84
2021/11/28 01:21:54;;;;;;;4.00;3.70;;;;;;;;;;5032364;28;20491;-85
2021/11/28 01:24:20;;;;;;;5.50;2.50;;;;;;;;;;5032253;28;20041;-84
2021/11/28 01:26:45;;;;;;;3.15;2.75;;;;;;;;;;5032881;28;20041;-83
2021/11/28 01:29:12;;;;;;;4.00;2.78;;;;;;;;;;5032574;28;20039;-84
2021/11/28 01:31:37;;;;;;;2.33;2.22;;;;;;;;;;5032734;28;20561;-83
2021/11/28 01:34:03;;;;;;;3.03;2.83;;;;;;;;;;5032661;28;20034;-83
2021/11/28 01:36:29;;;;;;;2.75;2.55;;;;;;;;;;5032515;28;20033;-82
2021/11/28 01:38:54;;;;;;;2.38;2.25;;;;;;;;;;5031138;28;20509;-83
2021/11/28 01:41:20;;;;;;;6.38;2.22;;;;;;;;;;5032395;28;20029;-82
2021/11/28 01:43:49;;;;;;;2.55;2.35;;;;;;;;;;5032569;28;20033;-83
2021/11/28 01:46:14;;;;;;;2.28;2.17;;;;;;;;;;5032298;28;20127;-82
2021/11/28 01:48:40;;;;;;;2.50;2.33;;;;;;;;;;5032446;28;20176;-83
2021/11/28 01:51:06;;;;;;;2.05;1.95;;;;;;;;;;5032661;28;20457;-84
2021/11/28 01:53:32;;;;;;;4.78;2.47;;;;;;;;;;5032128;28;20041;-83
2021/11/28 01:55:59;;;;;;;5.45;2.75;;;;;;;;;;5032177;28;20040;-82
2021/11/28 01:58:25;;;;;;;3.10;2.80;;;;;;;;;;5032362;28;20037;-82
2021/11/28 02:00:55;;;;;;;2.38;2.17;;;;;;;;;;5032746;28;20037;-82
2021/11/28 02:03:21;;;;;;;3.92;2.40;;;;;;;;;;5032288;28;20026;-82
2021/11/28 02:05:50;;;;;;;3.13;2.20;;;;;;;;;;5032304;28;20083;-81
2021/11/28 02:08:15;;;;;;;1.98;1.88;;;;;;;;;;5032421;28;20499;-82
2021/11/28 02:10:42;;;;;;;2.30;2.03;;;;;;;;;;5032907;28;20041;-82
2021/11/28 02:13:07;;;;;;;2.35;2.15;;;;;;;;;;5030900;28;20033;-83
2021/11/28 02:15:34;;;;;;;4.57;2.05;;;;;;;;;;5031926;28;20057;-83
2021/11/28 02:18:00;;;;;;;2.20;2.10;;;;;;;;;;5032370;28;20831;-83
2021/11/28 02:20:30;;;;;;;3.10;2.25;;;;;;;;;;5030651;28;20102;-83
2021/11/28 02:22:57;;;;;;;2.13;1.95;;;;;;;;;;5035862;28;20030;-83
2021/11/28 02:25:25;;;;;;;2.45;2.25;;;;;;;;;;5035871;28;20040;-82
2021/11/28 02:27:54;;;;;;;2.22;2.13;;;;;;;;;;5036043;28;20483;-82
2021/11/28 02:30:20;;;;;;;3.15;2.35;;;;;;;;;;5035736;28;20450;-83
2021/11/28 02:32:47;;;;;;;2.47;2.28;;;;;;;;;;5035766;28;20026;-82
2021/11/28 02:35:14;;;;;;;2.42;2.25;;;;;;;;;;5035582;28;20533;-82
2021/11/28 02:37:41;;;;;;;2.80;2.45;;;;;;;;;;5035910;28;20029;-82
2021/11/28 02:40:08;;;;;;;2.42;2.28;;;;;;;;;;5035755;28;20120;-82
2021/11/28 02:42:33;;;;;;;2.40;2.22;;;;;;;;;;5035303;28;20037;-81
2021/11/28 02:44:59;;;;;;;2.40;2.30;;;;;;;;;;5035569;28;20099;-82
2021/11/28 02:47:24;;;;;;;3.15;2.72;;;;;;;;;;5035530;28;20079;-82
2021/11/28 02:49:50;;;;;;;2.90;2.70;;;;;;;;;;5035250;28;20120;-83
2021/11/28 02:52:16;;;;;;;2.45;2.35;;;;;;;;;;5035420;28;20033;-82
2021/11/28 02:54:41;;;;;;;2.45;2.35;;;;;;;;;;5034161;28;20072;-82
2021/11/28 02:57:10;;;;;;;2.50;2.30;;;;;;;;;;5036295;28;20068;-84
2021/11/28 02:59:36;;;;;;;3.05;2.75;;;;;;;;;;5035553;28;20128;-83
2021/11/28 03:02:03;;;;;;;3.38;3.10;;;;;;;;;;5034765;28;20040;-84
2021/11/28 03:04:29;;;;;;;4.15;2.58;;;;;;;;;;5035705;28;20042;-83
2021/11/28 03:06:54;;;;;;;3.35;2.67;;;;;;;;;;5035436;28;20116;-83
2021/11/28 03:09:20;;;;;;;2.58;2.38;;;;;;;;;;5035302;28;20045;-82
2021/11/28 03:11:45;;;;;;;3.58;2.90;;;;;;;;;;5033952;28;20563;-83
2021/11/28 03:14:11;;;;;;;3.13;2.92;;;;;;;;;;5035157;28;20060;-83
2021/11/28 03:16:36;;;;;;;3.38;3.08;;;;;;;;;;5034603;28;20072;-83
2021/11/28 03:19:02;;;;;;;3.45;2.67;;;;;;;;;;5035082;28;20048;-85
2021/11/28 03:21:31;;;;;;;2.53;2.33;;;;;;;;;;5035340;28;20055;-83
2021/11/28 03:24:00;;;;;;;5.30;3.00;;;;;;;;;;5035032;28;20109;-85
2021/11/28 03:26:38;;;;;;;2.75;2.55;;;;;;;;;;5034899;28;20029;-83
2021/11/28 03:29:16;;;;;;;3.05;2.85;;;;;;;;;;5033211;28;20403;-85
2021/11/28 03:31:44;;;;;;;3.47;2.97;;;;;;;;;;5034857;28;20407;-85
2021/11/28 03:34:12;;;;;;;2.78;2.58;;;;;;;;;;5033900;28;20036;-83
2021/11/28 03:36:43;;;;;;;4.55;2.75;;;;;;;;;;5034655;28;20057;-83
2021/11/28 03:39:11;;;;;;;5.03;2.92;;;;;;;;;;5033546;28;20044;-81
2021/11/28 03:41:37;;;;;;;3.63;2.80;;;;;;;;;;5034813;28;20047;-83
2021/11/28 03:44:04;;;;;;;3.47;3.00;;;;;;;;;;5034329;28;20041;-83
2021/11/28 03:46:29;;;;;;;3.30;3.08;;;;;;;;;;5034459;28;20140;-85
2021/11/28 03:48:57;;;;;;;2.50;2.30;;;;;;;;;;5034429;28;20531;-84
2021/11/28 03:51:22;;;;;;;2.60;2.40;;;;;;;;;;5034628;28;20037;-85
2021/11/28 03:53:48;;;;;;;3.15;2.95;;;;;;;;;;5034288;28;20242;-84
2021/11/28 03:56:13;;;;;;;3.05;2.70;;;;;;;;;;5034225;28;20029;-84
2021/11/28 03:58:41;;;;;;;3.17;2.95;;;;;;;;;;5034335;28;20526;-85
2021/11/28 04:01:09;;;;;;;2.63;2.42;;;;;;;;;;5034081;28;20040;-84
2021/11/28 04:03:36;;;;;;;2.97;2.65;;;;;;;;;;5034115;28;20041;-85
2021/11/28 04:06:01;;;;;;;3.92;2.88;;;;;;;;;;5033030;28;20040;-83
2021/11/28 04:08:27;;;;;;;3.10;2.78;;;;;;;;;;5034336;28;20034;-84
2021/11/28 04:10:52;;;;;;;2.92;2.65;;;;;;;;;;5042127;28;20083;-85
2021/11/28 04:13:18;;;;;;;2.88;2.67;;;;;;;;;;5055552;28;20129;-84
2021/11/28 04:15:44;;;;;;;2.95;2.72;;;;;;;;;;5057319;28;20060;-84
2021/11/28 04:18:09;;;;;;;5.53;2.70;;;;;;;;;;5055384;28;20079;-83
2021/11/28 04:20:35;;;;;;;3.13;2.83;;;;;;;;;;5056785;28;20091;-83
2021/11/28 04:23:02;;;;;;;2.83;2.63;;;;;;;;;;5048707;28;20040;-84
2021/11/28 04:25:28;;;;;;;3.67;3.40;;;;;;;;;;5039604;28;20037;-83
2021/11/28 04:27:53;;;;;;;3.08;2.85;;;;;;;;;;5041379;28;20029;-83
2021/11/28 04:30:19;;;;;;;2.28;2.08;;;;;;;;;;5043814;28;20073;-83
2021/11/28 04:32:45;;;;;;;2.08;1.98;;;;;;;;;;5035907;28;20099;-83
2021/11/28 04:35:11;;;;;;;3.17;2.90;;;;;;;;;;5034178;28;20131;-82
2021/11/28 04:37:38;;;;;;;3.17;2.83;;;;;;;;;;5033885;28;20395;-85
2021/11/28 04:40:05;;;;;;;2.75;2.53;;;;;;;;;;5033707;28;20517;-82
2021/11/28 04:42:31;;;;;;;2.60;2.40;;;;;;;;;;5033652;28;20044;-81
2021/11/28 04:44:56;;;;;;;4.93;2.92;;;;;;;;;;5033118;28;20041;-83
2021/11/28 04:47:22;;;;;;;3.10;2.63;;;;;;;;;;5032383;28;20045;-86
2021/11/28 04:49:48;;;;;;;3.10;2.90;;;;;;;;;;5033661;28;20036;-86
2021/11/28 04:52:14;;;;;;;4.10;2.80;;;;;;;;;;5033697;28;20030;-87
2021/11/28 04:54:40;;;;;;;2.97;2.67;;;;;;;;;;5033224;28;20045;-86
2021/11/28 04:57:05;;;;;;;3.33;2.85;;;;;;;;;;5033594;28;20033;-86
2021/11/28 04:59:31;;;;;;;3.08;2.85;;;;;;;;;;5033503;28;20036;-87
2021/11/28 05:01:57;;;;;;;2.92;2.60;;;;;;;;;;5035285;28;20743;-86
2021/11/28 05:04:23;;;;;;;3.50;2.78;;;;;;;;;;5043622;28;20029;-83
2021/11/28 05:06:48;;;;;;;3.40;2.83;;;;;;;;;;5051191;28;20033;-83
2021/11/28 05:09:14;;;;;;;3.15;2.90;;;;;;;;;;5052820;28;20045;-86
2021/11/28 05:11:39;;;;;;;3.25;2.47;;;;;;;;;;5051686;28;20053;-87
2021/11/28 05:14:05;;;;;;;3.53;2.90;;;;;;;;;;5052828;28;20033;-83
2021/11/28 05:16:31;;;;;;;2.55;2.15;;;;;;;;;;5055158;28;20052;-87
2021/11/28 05:18:56;;;;;;;2.10;2.00;;;;;;;;;;5055105;28;20068;-84
2021/11/28 05:21:22;;;;;;;3.38;2.38;;;;;;;;;;5054313;28;20137;-87
2021/11/28 05:23:48;;;;;;;3.80;2.72;;;;;;;;;;5052278;28;20064;-85
2021/11/28 05:26:13;;;;;;;2.65;2.47;;;;;;;;;;5051365;28;20032;-83
2021/11/28 05:28:39;;;;;;;2.75;2.55;;;;;;;;;;5038380;28;20037;-85
2021/11/28 05:31:05;;;;;;;2.90;2.70;;;;;;;;;;5047802;28;20067;-85
2021/11/28 05:33:30;;;;;;;3.28;2.35;;;;;;;;;;5047922;28;20129;-86
2021/11/28 05:35:56;;;;;;;5.53;5.22;;;;;;;;;;5047406;28;20402;-86
2021/11/28 05:38:22;;;;;;;2.40;2.20;;;;;;;;;;5050083;28;20044;-87
2021/11/28 05:40:48;;;;;;;2.38;2.22;;;;;;;;;;5052173;28;20086;-85
2021/11/28 05:43:14;;;;;;;2.72;2.55;;;;;;;;;;5052858;28;20037;-85
2021/11/28 05:45:40;;;;;;;2.05;1.95;;;;;;;;;;5050743;28;20048;-86
2021/11/28 05:48:06;;;;;;;2.35;2.15;;;;;;;;;;5050852;28;20033;-87
2021/11/28 05:50:32;;;;;;;2.85;2.65;;;;;;;;;;5052242;28;20048;-91
2021/11/28 05:52:58;;;;;;;2.28;2.08;;;;;;;;;;5051113;28;20087;-88
2021/11/28 05:55:24;;;;;;;3.80;3.60;;;;;;;;;;5050769;28;20398;-84
2021/11/28 05:57:50;;;;;;;2.53;2.33;;;;;;;;;;5050807;28;20037;-85
2021/11/28 06:00:19;;;;;;;2.05;1.95;;;;;;;;;;5052335;28;20041;-93
2021/11/28 06:02:44;;;;;;;4.32;2.40;;;;;;;;;;5052283;28;20033;-86
2021/11/28 06:05:10;;;;;;;1.92;1.75;;;;;;;;;;5051357;28;20033;-85
2021/11/28 06:07:36;;;;;;;3.42;2.60;;;;;;;;;;5051682;28;20037;-83
2021/11/28 06:10:03;;;;;;;1.95;1.85;;;;;;;;;;5048965;28;20040;-83
2021/11/28 06:12:28;;;;;;;6.88;2.35;;;;;;;;;;5051673;28;20486;-83
2021/11/28 06:14:53;;;;;;;2.65;2.45;;;;;;;;;;5049838;28;20087;-83
2021/11/28 06:17:19;;;;;;;2.08;1.98;;;;;;;;;;5050909;28;20049;-83
2021/11/28 06:19:44;;;;;;;2.65;2.08;;;;;;;;;;5051340;28;20037;-84
2021/11/28 06:22:10;;;;;;;2.20;2.10;;;;;;;;;;5051374;28;20037;-83
2021/11/28 06:24:38;;;;;;;2.45;1.77;;;;;;;;;;5050894;28;20029;-82
2021/11/28 06:27:08;;;;;;;4.70;2.30;;;;;;;;;;5049978;28;20029;-85
2021/11/28 06:29:34;;;;;;;2.17;2.08;;;;;;;;;;5051200;28;20051;-82
2021/11/28 06:32:00;;;;;;;2.58;1.83;;;;;;;;;;5048071;28;20043;-83
2021/11/28 06:34:26;;;;;;;2.70;2.03;;;;;;;;;;5035364;28;20120;-83
2021/11/28 06:36:52;;;;;;;2.08;1.90;;;;;;;;;;5031360;28;20065;-83
2021/11/28 06:39:17;;;;;;;2.63;2.42;;;;;;;;;;5031404;28;20071;-84
2021/11/28 06:41:43;;;;;;;3.08;2.83;;;;;;;;;;5036023;28;20550;-83
2021/11/28 06:44:08;;;;;;;3.03;2.72;;;;;;;;;;5042348;28;20064;-84
2021/11/28 06:46:35;;;;;;;4.65;3.58;;;;;;;;;;5049669;28;20067;-83
2021/11/28 06:49:01;;;;;;;3.20;2.90;;;;;;;;;;5049204;28;20033;-84
2021/11/28 06:51:26;;;;;;;2.53;2.33;;;;;;;;;;5032620;28;20033;-84
2021/11/28 06:53:53;;;;;;;3.60;3.35;;;;;;;;;;5028233;28;21105;-85
2021/11/28 06:56:19;;;;;;;2.80;2.60;;;;;;;;;;5044354;28;20041;-85
2021/11/28 06:58:44;;;;;;;2.72;2.58;;;;;;;;;;5043735;28;20038;-84
2021/11/28 07:01:10;;;;;;;2.63;2.42;;;;;;;;;;5040999;28;20044;-84
2021/11/28 07:03:35;;;;;;;1.98;1.83;;;;;;;;;;5050851;28;20103;-84
2021/11/28 07:06:01;;;;;;;1.75;1.73;;;;;;;;;;5049749;28;20028;-84
2021/11/28 07:08:26;;;;;;;1.92;1.83;;;;;;;;;;5050694;28;20033;-82
2021/11/28 07:10:53;;;;;;;3.40;2.65;;;;;;;;;;5051526;28;20079;-83
2021/11/28 07:13:19;;;;;;;2.53;2.42;;;;;;;;;;5050163;28;20032;-85
2021/11/28 07:15:45;;;;;;;1.95;1.88;;;;;;;;;;5049845;28;20021;-83
2021/11/28 07:18:11;;;;;;;2.13;2.03;;;;;;;;;;5050157;28;20502;-84
2021/11/28 07:20:36;;;;;;;2.17;2.03;;;;;;;;;;5053555;28;20049;-84
2021/11/28 07:23:03;;;;;;;5.38;2.38;;;;;;;;;;5045073;28;20048;-82
2021/11/28 07:25:32;;;;;;;2.55;2.35;;;;;;;;;;5033975;28;20087;-86
2021/11/28 07:27:58;;;;;;;2.15;2.05;;;;;;;;;;5040053;28;20033;-82
2021/11/28 07:30:24;;;;;;;1.77;1.67;;;;;;;;;;5053705;28;20040;-84
2021/11/28 07:32:51;;;;;;;2.40;2.30;;;;;;;;;;5054375;28;20036;-84
2021/11/28 07:35:17;;;;;;;1.83;1.73;;;;;;;;;;5054160;28;20033;-82
2021/11/28 07:37:43;;;;;;;2.78;2.58;;;;;;;;;;5045893;28;20167;-87
2021/11/28 07:40:10;;;;;;;3.47;3.17;;;;;;;;;;5054122;28;20039;-83
2021/11/28 07:42:35;;;;;;;3.78;2.92;;;;;;;;;;5053751;28;20087;-84
2021/11/28 07:45:04;;;;;;;2.95;2.75;;;;;;;;;;5053116;28;20079;-84
2021/11/28 07:47:29;;;;;;;3.42;3.00;;;;;;;;;;5040773;28;20025;-85
2021/11/28 07:49:55;;;;;;;4.32;3.60;;;;;;;;;;5037331;28;20041;-84
2021/11/28 07:52:20;;;;;;;2.50;2.30;;;;;;;;;;5035897;28;20033;-83
2021/11/28 07:54:46;;;;;;;4.47;3.58;;;;;;;;;;5033217;28;20467;-83
2021/11/28 07:57:12;;;;;;;3.78;3.42;;;;;;;;;;5044561;28;20040;-84
2021/11/28 07:59:37;;;;;;;3.28;2.97;;;;;;;;;;5051672;28;20052;-82
2021/11/28 08:02:04;;;;;;;4.05;3.53;;;;;;;;;;5053074;28;20119;-84
2021/11/28 08:04:30;;;;;;;5.32;3.22;;;;;;;;;;5055777;28;20106;-83
2021/11/28 08:06:56;;;;;;;2.78;2.67;;;;;;;;;;5054160;28;20037;-82
2021/11/28 08:09:22;;;;;;;3.42;3.13;;;;;;;;;;5055463;28;20079;-83
2021/11/28 08:11:48;;;;;;;4.63;3.47;;;;;;;;;;5057442;28;20060;-84
2021/11/28 08:14:14;;;;;;;5.20;4.05;;;;;;;;;;5057409;28;20037;-84
2021/11/28 08:16:40;;;;;;;3.13;2.83;;;;;;;;;;5059699;28;20045;-84
2021/11/28 08:19:06;;;;;;;3.92;3.10;;;;;;;;;;5058317;28;20064;-85
2021/11/28 08:21:32;;;;;;;3.45;2.95;;;;;;;;;;5058899;28;20040;-85
2021/11/28 08:24:05;;;;;;;4.70;3.28;;;;;;;;;;5049138;28;20033;-83
2021/11/28 08:26:32;;;;;;;3.05;2.85;;;;;;;;;;5048628;28;20123;-84
2021/11/28 08:28:58;;;;;;;3.60;3.30;;;;;;;;;;5048042;28;20099;-83
2021/11/28 08:31:24;;;;;;;4.60;3.30;;;;;;;;;;5029593;28;20029;-83
2021/11/28 08:33:50;;;;;;;4.28;3.88;;;;;;;;;;5032573;28;20030;-82
2021/11/28 08:36:19;;;;;;;5.55;3.67;;;;;;;;;;5030998;28;20029;-85
2021/11/28 08:38:45;;;;;;;3.63;3.33;;;;;;;;;;5031771;28;20041;-84
2021/11/28 08:41:12;;;;;;;3.20;2.80;;;;;;;;;;5032430;28;20436;-85
2021/11/28 08:43:38;;;;;;;2.80;2.45;;;;;;;;;;5030739;28;20463;-83
2021/11/28 08:46:03;;;;;;;6.93;4.05;;;;;;;;;;5032018;28;20040;-84
2021/11/28 08:48:30;;;;;;;6.20;5.68;;;;;;;;;;5031462;28;20410;-84
2021/11/28 08:50:56;;;;;;;4.00;3.22;;;;;;;;;;5032309;28;20040;-84
2021/11/28 08:53:21;;;;;;;3.42;3.13;;;;;;;;;;5031152;28;20034;-84
2021/11/28 08:55:47;;;;;;;3.92;3.63;;;;;;;;;;5039634;28;20033;-84
2021/11/28 08:58:12;;;;;;;3.63;3.33;;;;;;;;;;5051356;28;20028;-85
2021/11/28 09:00:38;;;;;;;5.07;3.72;;;;;;;;;;5052493;28;20044;-84
2021/11/28 09:03:03;;;;;;;4.22;3.53;;;;;;;;;;5050691;28;20037;-86
2021/11/28 09:05:29;;;;;;;4.25;3.55;;;;;;;;;;5048448;28;20413;-85
2021/11/28 09:07:57;;;;;;;4.65;4.25;;;;;;;;;;5058057;28;20425;-84
2021/11/28 09:10:23;;;;;;;3.60;3.30;;;;;;;;;;5058691;28;20128;-85
2021/11/28 09:12:49;;;;;;;3.55;3.15;;;;;;;;;;5053710;28;20431;-85
2021/11/28 09:15:16;;;;;;;3.92;3.20;;;;;;;;;;5049791;28;20124;-87
2021/11/28 09:17:48;;;;;;;7.88;7.30;;;;;;;;;;5051563;28;20402;-84
2021/11/28 09:20:14;;;;;;;4.38;3.38;;;;;;;;;;5050607;28;20049;-84
2021/11/28 09:25:08;;;;;;;3.88;3.42;;;;;;;;;;5051358;28;20123;-85
2021/11/28 09:27:35;;;;;;;3.88;3.40;;;;;;;;;;5049068;28;20068;-87
2021/11/28 09:30:02;;;;;;;4.82;3.55;;;;;;;;;;5051352;28;20038;-84
2021/11/28 09:32:27;;;;;;;3.22;2.83;;;;;;;;;;5043993;28;20494;-84
2021/11/28 09:34:53;;;;;;;2.15;2.05;;;;;;;;;;5032673;28;20037;-88
2021/11/28 09:37:18;;;;;;;2.85;2.63;;;;;;;;;;5033689;28;20033;-88
2021/11/28 09:39:45;;;;;;;3.22;3.00;;;;;;;;;;5032779;28;20448;-87
2021/11/28 09:42:16;;;;;;;3.25;2.97;;;;;;;;;;5032133;28;20121;-86
2021/11/28 09:44:42;;;;;;;2.35;2.25;;;;;;;;;;5031028;28;20120;-85
2021/11/28 09:47:10;;;;;;;2.88;2.67;;;;;;;;;;5029313;28;20083;-84
2021/11/28 09:49:37;;;;;;;2.80;2.50;;;;;;;;;;5031161;28;20041;-84
2021/11/28 09:52:08;;;;;;;3.70;3.20;;;;;;;;;;5027950;28;20063;-84
2021/11/28 09:54:38;;;;;;;3.00;2.80;;;;;;;;;;5029048;28;20072;-84
2021/11/28 09:57:04;;;;;;;3.42;3.13;;;;;;;;;;5030138;28;20057;-83
2021/11/28 09:59:31;;;;;;;3.92;3.20;;;;;;;;;;5030345;28;20202;-84
2021/11/28 10:01:56;;;;;;;3.67;3.33;;;;;;;;;;5030155;28;20495;-84
2021/11/28 10:04:22;;;;;;;2.70;2.50;;;;;;;;;;5028897;28;20061;-84
2021/11/28 10:06:48;;;;;;;3.70;3.28;;;;;;;;;;5030143;28;20128;-84
2021/11/28 10:09:14;;;;;;;4.10;3.22;;;;;;;;;;5030465;28;20033;-83
2021/11/28 10:11:39;;;;;;;3.28;2.97;;;;;;;;;;5030795;28;20633;-84
2021/11/28 10:14:08;;;;;;;3.25;3.05;;;;;;;;;;5031281;28;20043;-85
2021/11/28 10:16:33;;;;;;;3.33;3.03;;;;;;;;;;5030832;28;20044;-84
2021/11/28 10:18:59;;;;;;;5.70;4.00;;;;;;;;;;5030281;28;20058;-85
2021/11/28 10:21:29;;;;;;;3.58;3.28;;;;;;;;;;5030450;28;20057;-84
2021/11/28 10:24:10;;;;;;;3.80;3.05;;;;;;;;;;5030508;28;20533;-82
2021/11/28 10:26:50;;;;;;;3.42;3.13;;;;;;;;;;5032516;28;20041;-84
2021/11/28 10:29:16;;;;;;;2.78;2.33;;;;;;;;;;5032108;28;20025;-83
2021/11/28 10:31:51;;;;;;;3.38;2.78;;;;;;;;;;5031108;28;20060;-84
2021/11/28 10:34:21;;;;;;;3.47;3.17;;;;;;;;;;5030430;28;20499;-84
2021/11/28 10:36:48;;;;;;;5.45;3.22;;;;;;;;;;5030540;28;20037;-84
2021/11/28 10:39:17;;;;;;;4.75;2.10;;;;;;;;;;5031386;28;20048;-85
2021/11/28 10:41:49;;;;;;;2.20;2.10;;;;;;;;;;5031099;28;20060;-83
2021/11/28 10:44:15;;;;;;;3.33;2.72;;;;;;;;;;5033311;28;20036;-83
2021/11/28 10:46:41;;;;;;;3.22;3.00;;;;;;;;;;5034658;28;20041;-83
2021/11/28 10:49:15;;;;;;;3.03;2.83;;;;;;;;;;5034021;28;20032;-83
2021/11/28 10:51:50;;;;;;;2.67;2.47;;;;;;;;;;5035407;28;20044;-84
2021/11/28 10:54:30;;;;;;;3.58;3.28;;;;;;;;;;5034971;28;20026;-83
2021/11/28 10:57:08;;;;;;;3.22;2.95;;;;;;;;;;5034817;28;20044;-82
2021/11/28 10:59:53;;;;;;;2.78;2.58;;;;;;;;;;5035149;28;20067;-84
2021/11/28 11:02:22;;;;;;;2.50;2.40;;;;;;;;;;5034842;28;20033;-83
2021/11/28 11:04:48;;;;;;;2.63;2.42;;;;;;;;;;5034546;28;20065;-85
2021/11/28 11:07:14;;;;;;;2.58;2.38;;;;;;;;;;5034801;28;20109;-85
2021/11/28 11:09:47;;;;;;;2.35;2.20;;;;;;;;;;5034525;28;20045;-84
2021/11/28 11:12:35;;;;;;;2.58;2.47;;;;;;;;;;5034639;28;20040;-83
2021/11/28 11:15:01;;;;;;;4.28;3.78;;;;;;;;;;5033748;28;20390;-83
2021/11/28 11:17:31;;;;;;;2.20;2.10;;;;;;;;;;5034104;28;20068;-83
2021/11/28 11:19:58;;;;;;;2.75;2.25;;;;;;;;;;5032984;28;20060;-84
2021/11/28 11:22:30;;;;;;;2.05;1.90;;;;;;;;;;5034212;28;20071;-84
2021/11/28 11:24:59;;;;;;;2.22;2.08;;;;;;;;;;5033094;28;20043;-84
2021/11/28 11:27:27;;;;;;;4.03;3.72;;;;;;;;;;5033294;28;20442;-84
2021/11/28 11:29:58;;;;;;;2.88;2.67;;;;;;;;;;5033196;28;20056;-84
2021/11/28 11:32:41;;;;;;;3.08;2.88;;;;;;;;;;5034424;28;20044;-84
2021/11/28 11:35:10;;;;;;;2.22;2.13;;;;;;;;;;5033689;28;20475;-83
2021/11/28 11:37:38;;;;;;;2.33;2.22;;;;;;;;;;5034233;28;20029;-84
2021/11/28 11:40:15;;;;;;;3.03;2.33;;;;;;;;;;5033875;28;20041;-84
2021/11/28 11:42:46;;;;;;;3.78;3.55;;;;;;;;;;5032662;28;20446;-85
2021/11/28 11:45:15;;;;;;;1.88;1.83;;;;;;;;;;5033835;28;20033;-84
2021/11/28 11:47:41;;;;;;;2.15;2.05;;;;;;;;;;5033677;28;20045;-83
2021/11/28 11:50:09;;;;;;;2.53;2.35;;;;;;;;;;5033673;28;20068;-83
2021/11/28 11:52:34;;;;;;;2.45;2.28;;;;;;;;;;5033556;28;20040;-85
2021/11/28 11:55:06;;;;;;;2.17;2.08;;;;;;;;;;5033013;28;20037;-83
2021/11/28 11:57:43;;;;;;;2.35;2.25;;;;;;;;;;5033716;28;20128;-83
2021/11/28 12:00:30;;;;;;;2.50;2.30;;;;;;;;;;5033574;28;20045;-86
2021/11/28 12:02:55;;;;;;;1.92;1.83;;;;;;;;;;5033486;28;20039;-83
2021/11/28 12:05:32;;;;;;;2.25;2.15;;;;;;;;;;5033298;28;20119;-84
2021/11/28 12:08:04;;;;;;;2.15;2.05;;;;;;;;;;5033328;28;20517;-85
2021/11/28 12:11:00;;;;;;;5.65;5.43;;;;;;;;;;5033311;28;20465;-84
2021/11/28 12:13:26;;;;;;;1.60;1.60;;;;;;;;;;5033457;28;20530;-82
2021/11/28 12:16:13;;;;;;;2.28;2.17;;;;;;;;;;5033254;28;20065;-83
2021/11/28 12:18:44;;;;;;;2.35;2.25;;;;;;;;;;5032912;28;20033;-83
2021/11/28 12:21:15;;;;;;;2.50;2.30;;;;;;;;;;5033270;28;20068;-84
2021/11/28 12:24:18;;;;;;;2.08;1.98;;;;;;;;;;5032901;28;20044;-84
2021/11/28 12:26:47;;;;;;;2.17;2.08;;;;;;;;;;5032869;28;20042;-85
2021/11/28 12:29:16;;;;;;;2.15;2.05;;;;;;;;;;5033175;28;20040;-84
2021/11/28 12:31:50;;;;;;;2.30;2.20;;;;;;;;;;5031133;28;20041;-83
2021/11/28 12:34:19;;;;;;;1.83;1.73;;;;;;;;;;5032877;28;20082;-83
2021/11/28 12:36:50;;;;;;;2.80;2.60;;;;;;;;;;5032666;28;20048;-85
2021/11/28 12:39:22;;;;;;;1.58;1.58;;;;;;;;;;5032307;28;20175;-85
2021/11/28 12:41:56;;;;;;;2.35;2.25;;;;;;;;;;5031602;28;20091;-84
2021/11/28 12:44:23;;;;;;;2.78;2.45;;;;;;;;;;5032794;28;20044;-83
2021/11/28 12:46:56;;;;;;;2.17;2.08;;;;;;;;;;5032585;28;20040;-83
2021/11/28 12:49:44;;;;;;;2.20;2.10;;;;;;;;;;5032299;28;20026;-83
2021/11/28 12:52:25;;;;;;;2.33;2.22;;;;;;;;;;5032255;28;20033;-84
2021/11/28 12:55:02;;;;;;;4.07;2.42;;;;;;;;;;5032242;28;20033;-84
2021/11/28 12:57:36;;;;;;;2.78;2.58;;;;;;;;;;5031211;28;20510;-83
2021/11/28 13:00:12;;;;;;;5.03;2.65;;;;;;;;;;5031086;28;20041;-85
2021/11/28 13:03:10;;;;;;;3.85;2.88;;;;;;;;;;5032764;28;20029;-83
2021/11/28 13:05:40;;;;;;;3.45;3.13;;;;;;;;;;5029733;28;20103;-83
2021/11/28 13:08:05;;;;;;;2.97;2.72;;;;;;;;;;5032403;28;20059;-83
2021/11/28 13:10:50;;;;;;;3.17;2.88;;;;;;;;;;5032386;28;20490;-83
2021/11/28 13:13:37;;;;;;;3.33;3.03;;;;;;;;;;5032199;28;20123;-85
2021/11/28 13:16:16;;;;;;;5.20;2.58;;;;;;;;;;5030709;28;20387;-84
2021/11/28 13:18:48;;;;;;;3.05;2.80;;;;;;;;;;5032516;28;20093;-85
2021/11/28 13:21:19;;;;;;;3.30;3.00;;;;;;;;;;5032545;28;20124;-83
2021/11/28 13:23:48;;;;;;;5.10;2.90;;;;;;;;;;5032368;28;20088;-84
2021/11/28 13:26:25;;;;;;;3.08;2.90;;;;;;;;;;5033318;28;20116;-85
2021/11/28 13:28:56;;;;;;;2.60;2.40;;;;;;;;;;5033502;28;20036;-83
2021/11/28 13:31:23;;;;;;;2.60;2.40;;;;;;;;;;5032160;28;20029;-84
2021/11/28 13:34:00;;;;;;;4.90;2.65;;;;;;;;;;5030735;28;20449;-83
2021/11/28 13:36:48;;;;;;;9.75;2.28;;;;;;;;;;5032277;28;20033;-83
2021/11/28 13:39:19;;;;;;;2.28;2.17;;;;;;;;;;5032066;28;20065;-84
2021/11/28 13:41:47;;;;;;;1.83;1.73;;;;;;;;;;5033095;28;20040;-84
2021/11/28 13:44:15;;;;;;;2.15;2.03;;;;;;;;;;5034190;28;20041;-84
2021/11/28 13:46:51;;;;;;;2.45;2.35;;;;;;;;;;5032518;28;20060;-85
2021/11/28 13:49:17;;;;;;;2.90;2.25;;;;;;;;;;5032011;28;20069;-85
2021/11/28 13:52:01;;;;;;;4.97;2.50;;;;;;;;;;5031633;28;20041;-85
2021/11/28 13:54:31;;;;;;;2.55;2.45;;;;;;;;;;5031620;28;20458;-83
2021/11/28 13:57:05;;;;;;;3.00;2.80;;;;;;;;;;5032260;28;20511;-85
2021/11/28 13:59:41;;;;;;;3.35;3.05;;;;;;;;;;5031992;28;20489;-83
2021/11/28 14:02:26;;;;;;;2.40;2.25;;;;;;;;;;5031784;28;20029;-85
2021/11/28 14:04:56;;;;;;;3.45;3.10;;;;;;;;;;5031841;28;20163;-85
2021/11/28 14:07:28;;;;;;;3.38;2.65;;;;;;;;;;5031729;28;20034;-85
2021/11/28 14:10:04;;;;;;;3.22;3.03;;;;;;;;;;5031618;28;20092;-84
2021/11/28 14:12:32;;;;;;;2.90;2.72;;;;;;;;;;5032015;28;20506;-84
2021/11/28 14:15:09;;;;;;;2.78;2.58;;;;;;;;;;5031814;28;20026;-84
2021/11/28 14:17:35;;;;;;;2.85;2.65;;;;;;;;;;5033452;28;20133;-84
2021/11/28 14:20:08;;;;;;;1.98;1.88;;;;;;;;;;5036205;28;20088;-85
2021/11/28 14:22:39;;;;;;;2.28;2.17;;;;;;;;;;5036373;28;20041;-86
2021/11/28 14:25:32;;;;;;;2.70;2.50;;;;;;;;;;5036553;28;20545;-85
2021/11/28 14:28:11;;;;;;;2.47;2.38;;;;;;;;;;5034861;28;20060;-85
2021/11/28 14:31:01;;;;;;;1.58;1.58;;;;;;;;;;5036091;28;20103;-85
2021/11/28 14:33:59;;;;;;;1.95;1.85;;;;;;;;;;5036249;28;20037;-84
2021/11/28 14:36:31;;;;;;;2.80;2.60;;;;;;;;;;5036695;28;20053;-85
2021/11/28 14:39:06;;;;;;;3.70;3.50;;;;;;;;;;5034418;28;20407;-86
2021/11/28 14:41:49;;;;;;;2.45;2.35;;;;;;;;;;5034346;28;20064;-85
2021/11/28 14:44:21;;;;;;;2.78;2.55;;;;;;;;;;5035257;28;20069;-85
2021/11/28 14:46:48;;;;;;;2.67;2.55;;;;;;;;;;5035792;28;20037;-84
2021/11/28 14:49:21;;;;;;;2.58;2.42;;;;;;;;;;5033748;28;20026;-86
2021/11/28 14:51:59;;;;;;;2.20;2.10;;;;;;;;;;5034454;28;20029;-86
2021/11/28 14:54:29;;;;;;;2.42;2.33;;;;;;;;;;5035325;28;20045;-86
2021/11/28 14:57:16;;;;;;;3.45;2.58;;;;;;;;;;5035539;28;20064;-85
2021/11/28 14:59:42;;;;;;;2.65;2.45;;;;;;;;;;5035396;28;20034;-84
2021/11/28 15:02:13;;;;;;;2.67;2.47;;;;;;;;;;5035571;28;20033;-85